Time;durP1;ratioP1;P1;durP2;ratioP2;P2;SDS_P1;SDS_P2;PMS_P1;PMS_P2;Temp;Humidity;BMP_temperature;BMP_pressure;BME280_temperature;BME280_humidity;BME280_pressure;Samples;Min_cycle;Max_cycle;Signal;HPM_P1;HPM_P2
2022/09/11 00:00:50;;;;;;;18.67;12.77;;;14.00;99.90;;;;;;5065585;28;20449;-81
2022/09/11 00:03:17;;;;;;;23.30;15.25;;;14.00;99.90;;;;;;5056904;28;20101;-81
2022/09/11 00:05:43;;;;;;;20.65;13.73;;;14.00;99.90;;;;;;5069366;28;20088;-81
2022/09/11 00:08:15;;;;;;;24.70;15.68;;;14.10;99.90;;;;;;5071959;28;20053;-79
2022/09/11 00:10:42;;;;;;;25.42;16.63;;;14.10;99.90;;;;;;5077347;28;20038;-79
2022/09/11 00:13:14;;;;;;;23.77;15.25;;;14.20;99.90;;;;;;5066673;28;20038;-80
2022/09/11 00:15:44;;;;;;;22.10;14.75;;;14.20;99.90;;;;;;5079743;28;20040;-80
2022/09/11 00:18:20;;;;;;;22.75;14.30;;;14.30;99.90;;;;;;5071470;28;20042;-80
2022/09/11 00:20:48;;;;;;;24.23;13.53;;;14.30;99.90;;;;;;5048674;28;20125;-80
2022/09/11 00:23:16;;;;;;;20.50;14.30;;;14.20;99.90;;;;;;5060641;28;20050;-80
2022/09/11 00:25:45;;;;;;;19.23;13.88;;;14.20;99.90;;;;;;5081137;28;20506;-80
2022/09/11 00:28:15;;;;;;;22.00;15.30;;;14.20;99.90;;;;;;5078239;28;20040;-80
2022/09/11 00:30:45;;;;;;;21.02;14.80;;;14.30;99.90;;;;;;5073682;28;20478;-81
2022/09/11 00:33:13;;;;;;;23.83;17.45;;;14.30;99.90;;;;;;5073234;28;20752;-80
2022/09/11 00:35:40;;;;;;;19.23;15.02;;;14.40;99.90;;;;;;5075893;28;20042;-80
2022/09/11 00:38:08;;;;;;;19.50;14.70;;;14.40;99.90;;;;;;5077994;28;20402;-81
2022/09/11 00:40:47;;;;;;;20.00;14.98;;;14.40;99.90;;;;;;5062823;28;20120;-81
2022/09/11 00:43:16;;;;;;;19.98;13.98;;;14.40;99.90;;;;;;5073731;28;20088;-81
2022/09/11 00:45:52;;;;;;;20.27;14.60;;;14.30;99.90;;;;;;5063928;28;20042;-81
2022/09/11 00:48:23;;;;;;;19.98;15.05;;;14.30;99.90;;;;;;5075959;28;20063;-81
2022/09/11 00:50:50;;;;;;;18.30;14.63;;;14.30;99.90;;;;;;5061808;28;20151;-81
2022/09/11 00:53:20;;;;;;;22.13;15.68;;;14.30;99.90;;;;;;5063393;28;20121;-81
2022/09/11 00:55:52;;;;;;;22.05;16.38;;;14.30;99.90;;;;;;5048059;28;20097;-81
2022/09/11 00:58:23;;;;;;;20.55;15.32;;;14.30;99.90;;;;;;5077308;28;20064;-81
2022/09/11 01:00:52;;;;;;;20.73;14.75;;;14.20;99.90;;;;;;5063162;28;20042;-81
2022/09/11 01:03:19;;;;;;;19.20;14.73;;;14.20;99.90;;;;;;5069796;28;20085;-81
2022/09/11 01:05:45;;;;;;;20.60;15.57;;;14.20;99.90;;;;;;5066361;28;20549;-81
2022/09/11 01:08:11;;;;;;;;;;;14.20;99.90;;;;;;5087281;28;20705;-81
2022/09/11 01:10:58;;;;;;;21.67;15.52;;;14.20;99.90;;;;;;5073748;28;19917;-81
2022/09/11 01:13:48;;;;;;;18.58;13.63;;;14.20;99.90;;;;;;5068718;28;20043;-81
2022/09/11 01:16:38;;;;;;;18.95;12.88;;;14.10;99.90;;;;;;5063985;28;20080;-80
2022/09/11 01:19:22;;;;;;;17.98;12.40;;;14.10;99.90;;;;;;5070078;28;20069;-80
2022/09/11 01:22:00;;;;;;;28.55;12.50;;;14.10;99.90;;;;;;5051951;28;20052;-80
2022/09/11 01:24:58;;;;;;;141.02;14.65;;;14.00;99.90;;;;;;5076927;28;20054;-81
2022/09/11 01:27:56;;;;;;;17.83;10.98;;;13.90;99.90;;;;;;5069271;28;20045;-81
2022/09/11 01:30:34;;;;;;;40.10;12.00;;;13.90;99.90;;;;;;5054349;28;20045;-80
2022/09/11 01:33:03;;;;;;;32.30;12.55;;;13.90;99.90;;;;;;5052452;28;20038;-82
2022/09/11 01:35:47;;;;;;;26.05;11.63;;;13.90;99.90;;;;;;5074453;28;20482;-80
2022/09/11 01:38:31;;;;;;;20.75;10.68;;;13.80;99.90;;;;;;5078784;28;20422;-81
2022/09/11 01:41:26;;;;;;;14.25;9.13;;;13.80;99.90;;;;;;5078277;28;20034;-81
2022/09/11 01:44:13;;;;;;;13.45;9.73;;;13.70;99.90;;;;;;5059292;28;20037;-80
2022/09/11 01:46:43;;;;;;;14.30;11.38;;;13.70;99.90;;;;;;5071916;28;20115;-81
2022/09/11 01:49:19;;;;;;;27.88;10.93;;;13.70;99.90;;;;;;5082152;28;20056;-81
2022/09/11 01:51:48;;;;;;;17.42;9.50;;;13.60;99.90;;;;;;5066537;28;20121;-81
2022/09/11 01:54:18;;;;;;;74.68;11.48;;;13.60;99.90;;;;;;5067403;28;20491;-79
2022/09/11 01:56:52;;;;;;;211.90;12.98;;;13.60;99.90;;;;;;5073261;28;20045;-81
2022/09/11 01:59:26;;;;;;;88.82;10.70;;;13.60;99.90;;;;;;5072899;28;20038;-81
2022/09/11 02:02:00;;;;;;;320.63;16.63;;;13.50;99.90;;;;;;5071104;28;20038;-82
2022/09/11 02:04:30;;;;;;;289.42;16.17;;;13.50;99.90;;;;;;5105849;28;20048;-79
2022/09/11 02:07:22;;;;;;;96.70;11.70;;;13.40;99.90;;;;;;5072804;28;20030;-80
2022/09/11 02:09:57;;;;;;;72.25;11.43;;;13.40;99.90;;;;;;5056906;28;20088;-80
2022/09/11 02:12:32;;;;;;;60.22;9.38;;;13.40;99.90;;;;;;5075151;28;20482;-80
2022/09/11 02:14:58;;;;;;;74.30;9.73;;;13.40;99.90;;;;;;5062193;28;20120;-80
2022/09/11 02:17:35;;;;;;;104.55;9.63;;;13.30;99.90;;;;;;5066383;28;20055;-81
2022/09/11 02:20:03;;;;;;;107.03;9.73;;;13.30;99.90;;;;;;5074370;28;20042;-80
2022/09/11 02:22:29;;;;;;;31.35;7.55;;;13.20;99.90;;;;;;5063489;28;20460;-81
2022/09/11 02:24:55;;;;;;;;;;;13.10;99.90;;;;;;5072614;28;20069;-80
2022/09/11 02:27:24;;;;;;;27.77;8.30;;;13.10;99.90;;;;;;5071790;28;20244;-81
2022/09/11 02:29:52;;;;;;;51.15;8.70;;;13.10;99.90;;;;;;5069861;28;20038;-81
2022/09/11 02:32:19;;;;;;;95.88;9.98;;;13.20;99.90;;;;;;5070941;28;20038;-81
2022/09/11 02:34:47;;;;;;;38.03;8.95;;;13.10;99.90;;;;;;5069861;28;20044;-80
2022/09/11 02:37:31;;;;;;;41.33;8.15;;;13.10;99.90;;;;;;5077058;28;20044;-80
2022/09/11 02:40:19;;;;;;;44.92;9.13;;;13.10;99.90;;;;;;5070307;28;20042;-81
2022/09/11 02:42:54;;;;;;;11.18;7.85;;;13.10;99.90;;;;;;5078124;28;20479;-81
2022/09/11 02:45:46;;;;;;;53.05;9.25;;;13.10;99.90;;;;;;5055307;28;20563;-81
2022/09/11 02:48:31;;;;;;;32.20;8.25;;;13.10;99.90;;;;;;5075014;28;20056;-81
2022/09/11 02:51:20;;;;;;;19.33;8.65;;;13.10;99.90;;;;;;5056465;28;20121;-81
2022/09/11 02:54:14;;;;;;;39.97;9.13;;;13.10;99.90;;;;;;5078511;28;20041;-81
2022/09/11 02:57:04;;;;;;;16.40;9.07;;;13.10;99.90;;;;;;5062537;28;20041;-80
2022/09/11 02:59:37;;;;;;;62.85;10.75;;;13.10;99.90;;;;;;5055134;28;20041;-81
2022/09/11 03:02:03;;;;;;;29.35;8.63;;;13.10;99.90;;;;;;5068928;28;20050;-81
2022/09/11 03:04:28;;;;;;;72.70;9.60;;;13.10;99.90;;;;;;5078861;28;20043;-81
2022/09/11 03:06:57;;;;;;;17.50;8.98;;;13.10;99.90;;;;;;5068665;28;20372;-81
2022/09/11 03:09:22;;;;;;;15.88;8.70;;;13.10;99.90;;;;;;5081632;28;20392;-80
2022/09/11 03:11:48;;;;;;;10.98;8.43;;;13.20;99.90;;;;;;5063196;28;20049;-80
2022/09/11 03:14:14;;;;;;;9.88;8.75;;;13.20;99.90;;;;;;5076802;28;20048;-81
2022/09/11 03:16:40;;;;;;;9.73;8.55;;;13.30;99.90;;;;;;5069715;28;20113;-81
2022/09/11 03:19:06;;;;;;;10.80;8.95;;;13.20;99.90;;;;;;5034995;28;20038;-81
2022/09/11 03:21:33;;;;;;;10.85;9.00;;;13.30;99.90;;;;;;5069172;28;20054;-81
2022/09/11 03:24:00;;;;;;;10.23;7.32;;;13.30;99.90;;;;;;5045596;28;20099;-81
2022/09/11 03:26:26;;;;;;;96.03;10.75;;;13.30;99.90;;;;;;5071062;28;20045;-81
2022/09/11 03:28:53;;;;;;;17.80;7.13;;;13.30;99.90;;;;;;5061102;28;20034;-80
2022/09/11 03:31:19;;;;;;;10.05;7.60;;;13.30;99.90;;;;;;5068614;28;20037;-81
2022/09/11 03:33:44;;;;;;;12.60;7.38;;;13.20;99.90;;;;;;5063516;28;20034;-81
2022/09/11 03:36:11;;;;;;;24.20;6.90;;;13.20;99.90;;;;;;5053665;28;20049;-81
2022/09/11 03:38:36;;;;;;;69.72;8.80;;;13.20;99.90;;;;;;5050666;28;20050;-81
2022/09/11 03:41:02;;;;;;;46.80;9.02;;;13.20;99.90;;;;;;5063593;28;20055;-80
2022/09/11 03:43:29;;;;;;;69.20;10.23;;;13.10;99.90;;;;;;5076280;28;20053;-80
2022/09/11 03:45:55;;;;;;;10.13;8.18;;;13.10;99.90;;;;;;5085936;28;20178;-80
2022/09/11 03:48:21;;;;;;;14.95;8.20;;;13.10;99.90;;;;;;5047872;28;20121;-80
2022/09/11 03:50:47;;;;;;;42.75;9.15;;;13.10;99.90;;;;;;5051335;28;20038;-80
2022/09/11 03:53:13;;;;;;;77.75;10.90;;;13.10;99.90;;;;;;5066107;28;20517;-81
2022/09/11 03:55:39;;;;;;;;;;;13.10;99.90;;;;;;5067117;28;20448;-80
2022/09/11 03:58:06;;;;;;;52.15;10.07;;;13.10;99.90;;;;;;5066942;28;19969;-80
2022/09/11 04:00:32;;;;;;;;;;;13.10;99.90;;;;;;5026350;28;20065;-80
2022/09/11 04:02:59;;;;;;;29.48;9.27;;;13.10;99.90;;;;;;5091616;28;20001;-80
2022/09/11 04:05:25;;;;;;;186.23;13.07;;;13.00;99.90;;;;;;5079818;28;20092;-80
2022/09/11 04:07:51;;;;;;;94.78;11.27;;;13.10;99.90;;;;;;5067008;28;20406;-81
2022/09/11 04:10:18;;;;;;;;;;;13.10;99.90;;;;;;5071012;28;20067;-80
2022/09/11 04:12:44;;;;;;;233.67;16.20;;;13.10;99.90;;;;;;5077248;28;19917;-80
2022/09/11 04:15:10;;;;;;;93.38;11.57;;;13.10;99.90;;;;;;5067354;28;20576;-81
2022/09/11 04:17:35;;;;;;;125.00;12.10;;;13.10;99.90;;;;;;5071755;28;20045;-80
2022/09/11 04:20:02;;;;;;;198.52;15.60;;;13.00;99.90;;;;;;5070636;28;20041;-80
2022/09/11 04:22:28;;;;;;;147.57;11.88;;;13.00;99.90;;;;;;5067234;28;20080;-80
2022/09/11 04:24:54;;;;;;;97.88;11.15;;;13.00;99.90;;;;;;5079321;28;20041;-81
2022/09/11 04:27:22;;;;;;;261.50;16.27;;;13.00;99.90;;;;;;5069111;28;20048;-80
2022/09/11 04:29:48;;;;;;;116.13;11.25;;;13.00;99.90;;;;;;5068303;28;20039;-81
2022/09/11 04:32:14;;;;;;;120.72;10.45;;;13.00;99.90;;;;;;5069947;28;20121;-81
2022/09/11 04:34:40;;;;;;;242.20;13.90;;;13.00;99.90;;;;;;5072415;28;20125;-80
2022/09/11 04:37:06;;;;;;;149.70;10.15;;;13.00;99.90;;;;;;5062478;28;20049;-80
2022/09/11 04:39:33;;;;;;;88.65;8.35;;;12.90;99.90;;;;;;5047658;28;20046;-80
2022/09/11 04:42:00;;;;;;;129.43;9.38;;;12.80;99.90;;;;;;5070005;28;20081;-81
2022/09/11 04:44:27;;;;;;;74.80;8.48;;;12.90;99.90;;;;;;5074372;28;20042;-80
2022/09/11 04:46:54;;;;;;;85.68;9.27;;;12.70;99.90;;;;;;5067837;28;20507;-80
2022/09/11 04:49:19;;;;;;;;;;;12.70;99.90;;;;;;5085364;28;20108;-80
2022/09/11 04:51:45;;;;;;;103.30;10.65;;;12.70;99.90;;;;;;5094413;28;19918;-81
2022/09/11 04:54:16;;;;;;;26.57;8.30;;;12.70;99.90;;;;;;5058380;28;20499;-80
2022/09/11 04:56:42;;;;;;;186.05;13.27;;;12.70;99.90;;;;;;5067180;28;20357;-80
2022/09/11 04:59:18;;;;;;;375.35;19.25;;;12.70;99.90;;;;;;5062965;28;20040;-80
2022/09/11 05:01:45;;;;;;;398.45;21.48;;;12.70;99.90;;;;;;5059787;28;20188;-80
2022/09/11 05:04:14;;;;;;;368.73;20.83;;;12.60;99.90;;;;;;5070248;28;20053;-80
2022/09/11 05:06:47;;;;;;;271.70;17.55;;;12.60;99.90;;;;;;5067516;28;20038;-80
2022/09/11 05:09:14;;;;;;;366.10;21.25;;;12.60;99.90;;;;;;5043513;28;20036;-81
2022/09/11 05:11:41;;;;;;;164.32;15.38;;;12.60;99.90;;;;;;5049118;28;20404;-80
2022/09/11 05:14:07;;;;;;;204.27;15.02;;;12.60;99.90;;;;;;5050339;28;20050;-80
2022/09/11 05:16:34;;;;;;;155.60;13.50;;;12.60;99.90;;;;;;5079067;28;20113;-80
2022/09/11 05:19:02;;;;;;;78.18;10.85;;;12.60;99.90;;;;;;5065009;28;20539;-80
2022/09/11 05:21:29;;;;;;;120.53;11.88;;;12.60;99.90;;;;;;5074351;28;20056;-80
2022/09/11 05:23:57;;;;;;;120.18;10.75;;;12.70;99.90;;;;;;5067030;28;20489;-80
2022/09/11 05:26:25;;;;;;;92.47;10.80;;;12.60;99.90;;;;;;5072306;28;20176;-77
2022/09/11 05:28:56;;;;;;;138.07;10.57;;;12.60;99.90;;;;;;5078416;28;20035;-77
2022/09/11 05:31:24;;;;;;;137.25;11.27;;;12.60;99.90;;;;;;5066783;28;20068;-76
2022/09/11 05:33:50;;;;;;;170.63;11.35;;;12.60;99.90;;;;;;5077242;28;20036;-78
2022/09/11 05:36:16;;;;;;;80.22;9.38;;;12.70;99.90;;;;;;5056752;28;20040;-77
2022/09/11 05:38:44;;;;;;;102.78;9.05;;;12.70;99.90;;;;;;5067253;28;20453;-78
2022/09/11 05:41:12;;;;;;;68.85;9.13;;;12.70;99.90;;;;;;5075761;28;20528;-78
2022/09/11 05:43:39;;;;;;;41.13;7.35;;;12.70;99.90;;;;;;5073894;28;20076;-76
2022/09/11 05:46:10;;;;;;;18.23;6.65;;;12.70;99.90;;;;;;5075803;28;20448;-75
2022/09/11 05:48:36;;;;;;;63.45;10.25;;;12.70;99.90;;;;;;5073735;28;20098;-75
2022/09/11 05:51:09;;;;;;;52.03;8.98;;;12.70;99.90;;;;;;5078218;28;20082;-75
2022/09/11 05:53:36;;;;;;;50.80;8.77;;;12.70;99.90;;;;;;5087637;28;20496;-76
2022/09/11 05:56:11;;;;;;;145.18;12.40;;;12.80;99.90;;;;;;5077800;28;20389;-76
2022/09/11 05:58:37;;;;;;;52.65;9.73;;;12.80;99.90;;;;;;5074858;28;20048;-78
2022/09/11 06:01:07;;;;;;;125.10;12.30;;;12.90;99.90;;;;;;5051020;28;20034;-79
2022/09/11 06:03:33;;;;;;;67.57;10.52;;;12.90;99.90;;;;;;5082082;28;20033;-80
2022/09/11 06:06:01;;;;;;;80.10;10.80;;;13.00;99.90;;;;;;5086446;28;20032;-79
2022/09/11 06:08:28;;;;;;;17.63;7.60;;;13.10;99.90;;;;;;5079508;28;20079;-79
2022/09/11 06:10:54;;;;;;;7.63;6.18;;;13.20;99.90;;;;;;5082021;28;20039;-79
2022/09/11 06:13:21;;;;;;;10.45;6.78;;;13.30;99.90;;;;;;5076103;28;20036;-79
2022/09/11 06:15:48;;;;;;;6.20;5.60;;;13.30;99.90;;;;;;5079080;28;20043;-78
2022/09/11 06:18:16;;;;;;;7.95;6.22;;;13.40;99.90;;;;;;5081266;28;20126;-79
2022/09/11 06:20:42;;;;;;;6.97;6.38;;;13.50;99.90;;;;;;5084018;28;20052;-78
2022/09/11 06:23:09;;;;;;;7.18;6.55;;;13.60;99.90;;;;;;5086248;28;20054;-79
2022/09/11 06:25:35;;;;;;;6.75;6.15;;;13.70;99.90;;;;;;5079440;28;20401;-79
2022/09/11 06:28:01;;;;;;;7.68;6.97;;;13.90;99.90;;;;;;5065497;28;20043;-79
2022/09/11 06:30:27;;;;;;;8.38;7.57;;;14.00;99.90;;;;;;5077623;28;20489;-79
2022/09/11 06:32:55;;;;;;;7.20;6.55;;;14.20;99.90;;;;;;5076395;28;20072;-79
2022/09/11 06:35:22;;;;;;;8.13;7.32;;;14.40;99.90;;;;;;5076312;28;20037;-78
2022/09/11 06:37:48;;;;;;;8.55;7.75;;;14.60;99.90;;;;;;5079575;28;20048;-78
2022/09/11 06:40:14;;;;;;;9.90;8.88;;;14.80;99.90;;;;;;5083570;28;20044;-80
2022/09/11 06:42:39;;;;;;;9.65;8.75;;;14.90;99.90;;;;;;5036746;28;20104;-79
2022/09/11 06:45:07;;;;;;;10.32;9.32;;;15.20;99.90;;;;;;5084469;28;20477;-79
2022/09/11 06:47:33;;;;;;;12.48;9.75;;;15.40;99.90;;;;;;5081115;28;20065;-79
2022/09/11 06:49:59;;;;;;;10.98;9.88;;;15.70;99.90;;;;;;5084393;28;20429;-79
2022/09/11 06:52:24;;;;;;;12.10;10.25;;;15.90;99.90;;;;;;5082275;28;20039;-78
2022/09/11 06:54:50;;;;;;;11.35;9.77;;;16.20;99.90;;;;;;5065079;28;20040;-82
2022/09/11 06:57:16;;;;;;;11.02;9.93;;;16.30;99.90;;;;;;5047712;28;20044;-81
2022/09/11 06:59:42;;;;;;;10.88;9.30;;;16.30;99.90;;;;;;5080094;28;20060;-81
2022/09/11 07:02:10;;;;;;;11.52;10.13;;;16.30;99.90;;;;;;5058269;28;20082;-78
2022/09/11 07:04:36;;;;;;;11.20;10.10;;;16.30;99.90;;;;;;5072999;28;20474;-79
2022/09/11 07:07:02;;;;;;;10.23;9.23;;;16.60;99.90;;;;;;5078760;28;20135;-78
2022/09/11 07:09:27;;;;;;;9.30;8.40;;;17.30;99.90;;;;;;5081746;28;20028;-78
2022/09/11 07:11:53;;;;;;;10.38;7.78;;;18.10;99.90;;;;;;5078556;28;20033;-79
2022/09/11 07:14:22;;;;;;;8.07;7.05;;;18.70;99.90;;;;;;5081001;28;20050;-79
2022/09/11 07:16:49;;;;;;;8.13;7.22;;;19.30;99.90;;;;;;5058990;28;20044;-79
2022/09/11 07:19:17;;;;;;;7.82;6.97;;;19.90;99.90;;;;;;5082073;28;20040;-78
2022/09/11 07:21:42;;;;;;;7.13;6.43;;;20.20;99.90;;;;;;5071292;28;20083;-78
2022/09/11 07:24:08;;;;;;;8.60;6.20;;;20.60;99.90;;;;;;5059546;28;20067;-78
2022/09/11 07:26:35;;;;;;;9.45;6.75;;;20.90;99.90;;;;;;5067332;28;20545;-78
2022/09/11 07:29:01;;;;;;;7.47;6.60;;;21.10;99.90;;;;;;5064026;28;20045;-79
2022/09/11 07:31:29;;;;;;;6.43;5.70;;;21.40;99.90;;;;;;5076083;28;20072;-79
2022/09/11 07:33:56;;;;;;;8.80;6.05;;;21.70;99.90;;;;;;5078692;28;20040;-79
2022/09/11 07:36:23;;;;;;;;;;;21.90;99.90;;;;;;5076091;28;20097;-78
2022/09/11 07:38:50;;;;;;;7.53;6.13;;;22.00;99.90;;;;;;5075951;28;20327;-78
2022/09/11 07:41:18;;;;;;;6.60;5.90;;;22.30;99.90;;;;;;5081247;28;20118;-78
2022/09/11 07:43:45;;;;;;;6.97;5.97;;;22.60;99.90;;;;;;5089808;28;20051;-78
2022/09/11 07:46:11;;;;;;;6.95;5.60;;;22.80;99.90;;;;;;5076630;28;20055;-77
2022/09/11 07:48:38;;;;;;;9.40;5.97;;;23.00;99.90;;;;;;5082366;28;20547;-77
2022/09/11 07:51:09;;;;;;;6.55;5.95;;;23.40;99.90;;;;;;5074808;28;20040;-77
2022/09/11 07:53:40;;;;;;;7.72;5.90;;;23.60;99.90;;;;;;5078092;28;20431;-78
2022/09/11 07:56:14;;;;;;;7.68;5.57;;;23.60;99.90;;;;;;5071947;28;20063;-78
2022/09/11 07:58:41;;;;;;;8.52;5.70;;;23.80;99.90;;;;;;5061729;28;20101;-78
2022/09/11 08:01:16;;;;;;;7.25;5.50;;;23.90;99.90;;;;;;5076900;28;20045;-79
2022/09/11 08:03:42;;;;;;;5.88;5.28;;;24.30;99.90;;;;;;5072167;28;20078;-78
2022/09/11 08:06:15;;;;;;;6.22;5.60;;;24.50;99.90;;;;;;5073204;28;20075;-77
2022/09/11 08:08:42;;;;;;;5.00;4.10;;;24.70;99.90;;;;;;5072806;28;20097;-81
2022/09/11 08:11:13;;;;;;;7.50;5.40;;;24.90;99.90;;;;;;5054716;28;20033;-77
2022/09/11 08:13:39;;;;;;;7.07;5.00;;;25.40;99.90;;;;;;5068243;28;20064;-78
2022/09/11 08:16:05;;;;;;;5.97;4.50;;;25.70;99.90;;;;;;5075261;28;20067;-78
2022/09/11 08:18:31;;;;;;;3.38;2.97;;;25.90;99.90;;;;;;5058686;28;20051;-78
2022/09/11 08:21:08;;;;;;;3.13;2.30;;;26.10;99.90;;;;;;5020328;28;20057;-79
2022/09/11 08:23:35;;;;;;;5.78;3.03;;;25.90;99.90;;;;;;5004479;28;21039;-78
2022/09/11 08:26:05;;;;;;;3.72;2.17;;;25.80;99.90;;;;;;5008847;28;20075;-78
2022/09/11 08:28:33;;;;;;;2.92;1.95;;;26.20;99.90;;;;;;5011978;28;20045;-78
2022/09/11 08:30:59;;;;;;;4.07;2.25;;;26.60;99.90;;;;;;4998524;28;20044;-79
2022/09/11 08:33:25;;;;;;;4.25;2.45;;;27.00;99.90;;;;;;5000250;28;20056;-79
2022/09/11 08:35:51;;;;;;;4.38;2.17;;;27.20;99.90;;;;;;5032774;28;20098;-80
2022/09/11 08:38:17;;;;;;;2.28;1.73;;;27.70;99.90;;;;;;5027458;28;20530;-80
2022/09/11 08:40:43;;;;;;;4.03;2.38;;;28.00;99.90;;;;;;5016545;28;20122;-79
2022/09/11 08:43:31;;;;;;;3.90;2.05;;;28.00;99.90;;;;;;5028883;28;20111;-79
2022/09/11 08:46:08;;;;;;;4.22;1.92;;;28.40;99.90;;;;;;5060590;28;20098;-79
2022/09/11 08:49:06;;;;;;;3.40;1.73;;;28.70;99.90;;;;;;5001599;28;20654;-79
2022/09/11 08:51:31;;;;;;;5.90;2.10;;;28.80;99.90;;;;;;5034105;28;20043;-79
2022/09/11 08:54:00;;;;;;;6.05;2.40;;;29.10;99.90;;;;;;5014595;28;20046;-79
2022/09/11 08:56:29;;;;;;;3.42;1.70;;;28.80;99.90;;;;;;5064526;28;20044;-79
2022/09/11 08:59:07;;;;;;;4.65;1.85;;;28.40;99.90;;;;;;5036087;28;20051;-79
2022/09/11 09:01:56;;;;;;;4.88;2.13;;;27.60;99.90;;;;;;5013067;28;20487;-78
2022/09/11 09:04:40;;;;;;;3.63;1.83;;;27.20;99.90;;;;;;5012616;28;20038;-80
2022/09/11 09:07:24;;;;;;;3.28;1.30;;;27.00;99.90;;;;;;5046771;28;20125;-80
2022/09/11 09:10:02;;;;;;;4.47;1.20;;;27.20;99.90;;;;;;5006632;28;20375;-80
2022/09/11 09:12:48;;;;;;;2.65;1.10;;;27.00;99.90;;;;;;5019152;28;20152;-80
2022/09/11 09:15:31;;;;;;;4.03;1.40;;;26.60;99.90;;;;;;5013098;28;20040;-81
2022/09/11 09:18:25;;;;;;;3.97;1.08;;;25.80;99.90;;;;;;4987315;28;20038;-80
2022/09/11 09:21:03;;;;;;;2.65;0.93;;;25.40;99.90;;;;;;5050519;28;20110;-80
2022/09/11 09:23:54;;;;;;;1.80;0.90;;;26.00;99.90;;;;;;5071803;28;20051;-80
2022/09/11 09:26:22;;;;;;;3.17;1.13;;;26.50;99.90;;;;;;5084022;28;20055;-80
2022/09/11 09:28:53;;;;;;;3.58;1.15;;;26.20;99.90;;;;;;5084603;28;20044;-82
2022/09/11 09:31:21;;;;;;;4.50;1.20;;;25.80;99.90;;;;;;5083800;28;20396;-82
2022/09/11 09:34:26;;;;;;;4.07;1.02;;;26.00;99.90;;;;;;5081676;28;20048;-81
2022/09/11 09:37:10;;;;;;;2.05;0.80;;;26.70;99.90;;;;;;5032960;28;20123;-83
2022/09/11 09:39:36;;;;;;;2.30;1.05;;;27.30;99.80;;;;;;5084629;28;20040;-83
2022/09/11 09:42:27;;;;;;;1.67;0.80;;;28.00;99.70;;;;;;5068284;28;20049;-81
2022/09/11 09:45:23;;;;;;;2.78;1.25;;;28.90;99.70;;;;;;5081253;28;20064;-84
2022/09/11 09:47:49;;;;;;;4.15;1.20;;;29.40;99.00;;;;;;5073613;28;20071;-88
2022/09/11 09:50:28;;;;;;;2.35;0.90;;;29.60;99.40;;;;;;5081011;28;20068;-83
2022/09/11 09:53:10;;;;;;;3.40;1.00;;;30.10;98.50;;;;;;5081478;28;20040;-87
2022/09/11 09:55:39;;;;;;;1.42;0.80;;;30.70;97.10;;;;;;5078012;28;20511;-86
2022/09/11 09:58:06;;;;;;;1.85;0.70;;;30.40;97.10;;;;;;5067514;28;20543;-85
2022/09/11 10:00:34;;;;;;;3.90;0.70;;;29.70;97.00;;;;;;5080691;28;20036;-85
2022/09/11 10:03:20;;;;;;;1.70;0.60;;;29.50;97.20;;;;;;5065990;28;20064;-86
2022/09/11 10:05:47;;;;;;;3.47;1.60;;;29.20;96.70;;;;;;5075266;28;20043;-86
2022/09/11 10:08:34;;;;;;;3.88;1.60;;;28.30;98.50;;;;;;5049402;28;20040;-86
2022/09/11 10:11:01;;;;;;;;;;;27.60;99.20;;;;;;5058030;28;20040;-86
2022/09/11 10:13:36;;;;;;;8.15;2.10;;;27.00;99.90;;;;;;5086470;28;20371;-85
2022/09/11 10:16:04;;;;;;;4.37;1.90;;;26.20;99.90;;;;;;5077221;28;20124;-86
2022/09/11 10:18:41;;;;;;;3.95;1.73;;;25.60;99.90;;;;;;5069337;28;20289;-85
2022/09/11 10:21:28;;;;;;;4.20;2.00;;;25.20;99.90;;;;;;5018049;28;20059;-84
2022/09/11 10:23:58;;;;;;;;;;;24.80;99.90;;;;;;5014687;28;20438;-84
2022/09/11 10:26:36;;;;;;;4.85;2.22;;;24.40;99.90;;;;;;5026915;28;20015;-85
2022/09/11 10:29:06;;;;;;;5.05;2.60;;;24.30;99.90;;;;;;5022984;28;20038;-86
2022/09/11 10:31:33;;;;;;;3.15;2.55;;;24.20;99.90;;;;;;5014683;28;20069;-85
2022/09/11 10:33:59;;;;;;;5.25;3.22;;;24.10;99.90;;;;;;5007631;28;20259;-84
2022/09/11 10:36:27;;;;;;;4.35;2.90;;;23.90;99.90;;;;;;5027656;28;20040;-84
2022/09/11 10:38:57;;;;;;;4.25;2.10;;;23.90;99.90;;;;;;5030667;28;20039;-85
2022/09/11 10:41:26;;;;;;;3.35;2.10;;;23.80;99.90;;;;;;5036958;28;20042;-83
2022/09/11 10:44:02;;;;;;;3.42;2.00;;;23.60;99.90;;;;;;5012765;28;20051;-83
2022/09/11 10:46:39;;;;;;;3.80;1.53;;;23.70;99.90;;;;;;5013290;28;20123;-82
2022/09/11 10:49:04;;;;;;;2.97;1.60;;;23.80;99.90;;;;;;5010518;28;20044;-82
2022/09/11 10:51:34;;;;;;;;;;;23.90;99.90;;;;;;5022187;28;20043;-82
2022/09/11 10:54:21;;;;;;;2.30;1.40;;;24.00;99.90;;;;;;5010654;28;19917;-83
2022/09/11 10:56:59;;;;;;;3.30;1.30;;;24.00;99.90;;;;;;5022751;28;20485;-83
2022/09/11 11:00:07;;;;;;;3.38;1.20;;;24.10;99.90;;;;;;5027008;28;20477;-80
2022/09/11 11:02:34;;;;;;;;;;;24.50;99.90;;;;;;5042556;28;20397;-81
2022/09/11 11:05:04;;;;;;;;;;;24.60;99.90;;;;;;5042250;28;19990;-82
2022/09/11 11:07:55;;;;;;;4.28;1.30;;;24.80;99.90;;;;;;5020315;28;20327;-81
2022/09/11 11:10:39;;;;;;;3.25;1.00;;;25.40;99.90;;;;;;4998649;28;20049;-82
2022/09/11 11:13:39;;;;;;;3.53;1.27;;;25.90;99.90;;;;;;4993369;28;20559;-81
2022/09/11 11:16:17;;;;;;;3.05;0.90;;;26.80;99.90;;;;;;5004431;28;20039;-81
2022/09/11 11:19:24;;;;;;;2.67;1.10;;;27.00;99.90;;;;;;5000183;28;20074;-78
2022/09/11 11:21:53;;;;;;;2.45;0.90;;;26.70;99.90;;;;;;5068927;28;20048;-81
2022/09/11 11:24:21;;;;;;;2.22;0.70;;;26.40;99.90;;;;;;5076131;28;20502;-79
2022/09/11 11:27:29;;;;;;;1.50;0.60;;;26.20;99.90;;;;;;5073213;28;20458;-80
2022/09/11 11:30:08;;;;;;;2.03;0.65;;;26.30;99.40;;;;;;5061418;28;20127;-82
2022/09/11 11:33:08;;;;;;;3.00;0.50;;;26.50;99.60;;;;;;5079022;28;20036;-82
2022/09/11 11:35:47;;;;;;;1.65;0.50;;;26.50;99.00;;;;;;5058414;28;20051;-83
2022/09/11 11:38:38;;;;;;;2.03;0.70;;;26.20;99.40;;;;;;5081365;28;20075;-82
2022/09/11 11:41:24;;;;;;;1.98;0.70;;;26.10;99.30;;;;;;5061614;28;20039;-83
2022/09/11 11:43:51;;;;;;;3.87;0.57;;;26.00;99.40;;;;;;5063143;28;20044;-82
2022/09/11 11:46:34;;;;;;;2.10;0.70;;;26.00;99.90;;;;;;5081281;28;20393;-83
2022/09/11 11:49:32;;;;;;;2.70;0.85;;;26.00;99.90;;;;;;5079309;28;20058;-83
2022/09/11 11:52:30;;;;;;;2.10;0.50;;;25.90;99.30;;;;;;5078519;28;20070;-83
2022/09/11 11:55:23;;;;;;;2.17;0.77;;;26.20;99.70;;;;;;5074041;28;20044;-83
2022/09/11 11:58:31;;;;;;;1.42;0.68;;;26.50;99.50;;;;;;5080560;28;20082;-82
2022/09/11 12:01:02;;;;;;;2.50;0.82;;;26.80;99.00;;;;;;5061685;28;20557;-83
2022/09/11 12:03:41;;;;;;;2.47;0.60;;;27.60;98.70;;;;;;5066997;28;20043;-84
2022/09/11 12:06:07;;;;;;;1.23;0.60;;;28.50;97.20;;;;;;5080668;28;20353;-84
2022/09/11 12:08:44;;;;;;;4.65;0.93;;;28.70;97.00;;;;;;5059203;28;20115;-83
2022/09/11 12:11:13;;;;;;;3.35;0.80;;;28.90;96.40;;;;;;5042714;28;20044;-83
2022/09/11 12:13:45;;;;;;;2.45;0.57;;;28.80;96.10;;;;;;5075921;28;20416;-83
2022/09/11 12:16:23;;;;;;;2.42;0.63;;;29.40;95.80;;;;;;5080667;28;20041;-84
2022/09/11 12:19:06;;;;;;;3.28;0.88;;;29.70;96.40;;;;;;5065926;28;20123;-84
2022/09/11 12:21:36;;;;;;;3.17;0.63;;;29.10;96.70;;;;;;5037048;28;20435;-84
2022/09/11 12:24:01;;;;;;;1.33;0.68;;;29.10;96.60;;;;;;5022476;28;20494;-83
2022/09/11 12:26:29;;;;;;;2.65;0.95;;;29.50;96.50;;;;;;5017630;28;20068;-83
2022/09/11 12:29:14;;;;;;;3.92;0.80;;;29.20;95.80;;;;;;4983205;28;20091;-83
2022/09/11 12:31:49;;;;;;;2.45;0.60;;;28.60;95.20;;;;;;5004757;28;20066;-80
2022/09/11 12:34:23;;;;;;;2.55;0.80;;;28.20;96.00;;;;;;4987736;28;20129;-80
2022/09/11 12:37:02;;;;;;;1.35;0.50;;;27.90;96.00;;;;;;5005719;28;20046;-79
2022/09/11 12:39:51;;;;;;;2.42;0.75;;;27.70;96.40;;;;;;5023281;28;20037;-84
2022/09/11 12:42:37;;;;;;;2.60;0.70;;;27.30;96.50;;;;;;5044344;28;20068;-83
2022/09/11 12:45:04;;;;;;;2.13;0.90;;;27.00;96.50;;;;;;4998602;28;20073;-79
2022/09/11 12:47:38;;;;;;;2.45;0.60;;;26.60;97.20;;;;;;5012452;28;20045;-82
2022/09/11 12:50:04;;;;;;;2.00;0.55;;;26.50;97.30;;;;;;5040109;28;20036;-83
2022/09/11 12:52:32;;;;;;;2.53;0.75;;;26.10;97.80;;;;;;5031081;28;20444;-84
2022/09/11 12:55:05;;;;;;;1.70;0.50;;;25.90;98.30;;;;;;5039249;28;20509;-86
2022/09/11 12:57:34;;;;;;;2.55;0.70;;;25.70;98.60;;;;;;5005931;28;20046;-85
2022/09/11 13:00:19;;;;;;;3.35;0.73;;;25.70;98.70;;;;;;5027632;28;20046;-85
2022/09/11 13:02:51;;;;;;;3.28;0.90;;;25.80;99.00;;;;;;5012592;28;20050;-86
2022/09/11 13:05:36;;;;;;;2.15;0.68;;;25.60;98.30;;;;;;5031113;28;20046;-86
2022/09/11 13:08:08;;;;;;;1.30;0.60;;;26.20;98.50;;;;;;4990973;28;20043;-86